createdAt,value
2022-12-12T00:00:43.670Z,98369.78
2022-12-12T00:02:45.898Z,98357.28
2022-12-12T00:04:48.172Z,98358.38
2022-12-12T00:06:50.569Z,98352.84
2022-12-12T00:08:52.944Z,98347.06
2022-12-12T00:10:55.154Z,98343.47
2022-12-12T00:12:57.599Z,98342.47
2022-12-12T00:14:59.896Z,98344.50
2022-12-12T00:17:02.017Z,98340.03
2022-12-12T00:19:04.086Z,98342.25
2022-12-12T00:21:12.879Z,98351.97
2022-12-12T00:23:18.033Z,98356.97
2022-12-12T00:25:20.290Z,98360.53
2022-12-12T00:27:22.329Z,98357.00
2022-12-12T00:29:24.437Z,98352.72
2022-12-12T00:31:27.527Z,98362.63
2022-12-12T00:33:29.671Z,98359.03
2022-12-12T00:35:31.835Z,98356.38
2022-12-12T00:37:33.966Z,98363.31
2022-12-12T00:39:35.917Z,98365.06
2022-12-12T00:41:38.149Z,98365.81
2022-12-12T00:43:40.472Z,98365.72
2022-12-12T00:45:42.512Z,98376.41
2022-12-12T00:47:44.623Z,98373.75
2022-12-12T00:49:46.715Z,98371.28
2022-12-12T00:51:48.891Z,98369.53
2022-12-12T00:53:51.991Z,98363.22
2022-12-12T00:55:58.562Z,98361.78
2022-12-12T00:58:00.681Z,98362.47
2022-12-12T01:00:04.373Z,98356.03
2022-12-12T01:02:06.521Z,98355.09
2022-12-12T01:04:08.676Z,98355.34
2022-12-12T01:06:11.205Z,98363.09
2022-12-12T01:08:13.899Z,98348.88
2022-12-12T01:10:15.982Z,98352.41
2022-12-12T01:12:18.276Z,98346.34
2022-12-12T01:14:21.222Z,98351.94
2022-12-12T01:16:24.144Z,98350.13
2022-12-12T01:18:26.469Z,98347.34
2022-12-12T01:20:29.173Z,98358.13
2022-12-12T01:22:34.042Z,98358.75
2022-12-12T01:24:36.351Z,98353.28
2022-12-12T01:26:41.595Z,98357.69
2022-12-12T01:28:45.096Z,98352.38
2022-12-12T01:30:47.128Z,98355.88
2022-12-12T01:32:49.673Z,98363.22
2022-12-12T01:34:51.774Z,98368.63
2022-12-12T01:36:54.127Z,98368.78
2022-12-12T01:39:00.800Z,98364.31
2022-12-12T01:41:02.733Z,98365.00
2022-12-12T01:43:11.854Z,98362.22
2022-12-12T01:45:51.308Z,98351.97
2022-12-12T01:47:53.619Z,98355.38
2022-12-12T01:50:10.701Z,98354.81
2022-12-12T01:52:20.101Z,98359.94
2022-12-12T01:54:34.416Z,98352.84
2022-12-12T01:56:39.978Z,98359.72
2022-12-12T01:58:46.186Z,98350.28
2022-12-12T02:00:48.941Z,98354.69
2022-12-12T02:02:52.689Z,98362.81
2022-12-12T02:04:54.933Z,98361.69
2022-12-12T02:06:57.528Z,98362.69
2022-12-12T02:09:04.397Z,98369.00
2022-12-12T02:11:06.462Z,98368.09
2022-12-12T02:13:20.568Z,98360.50
2022-12-12T02:15:27.394Z,98360.22
2022-12-12T02:17:47.386Z,98367.16
2022-12-12T02:20:09.610Z,98362.09
2022-12-12T02:22:48.041Z,98355.22
2022-12-12T02:24:59.193Z,98370.63
2022-12-12T02:27:32.384Z,98368.16
2022-12-12T02:29:55.989Z,98368.97
2022-12-12T02:32:19.765Z,98365.44
2022-12-12T02:34:24.451Z,98367.88
2022-12-12T02:36:32.264Z,98371.44
2022-12-12T02:38:49.231Z,98374.84
2022-12-12T02:41:00.263Z,98383.81
2022-12-12T02:43:19.613Z,98379.44
2022-12-12T02:45:30.160Z,98382.03
2022-12-12T02:47:35.855Z,98395.22
2022-12-12T02:49:56.555Z,98396.41
2022-12-12T02:52:03.066Z,98382.72
2022-12-12T02:54:06.653Z,98385.53
2022-12-12T02:56:47.118Z,98384.06
2022-12-12T02:58:52.722Z,98381.28
2022-12-12T03:01:13.411Z,98382.25
2022-12-12T03:03:57.521Z,98385.94
2022-12-12T03:06:57.146Z,98385.66
2022-12-12T03:09:28.720Z,98378.44
2022-12-12T03:12:07.261Z,98386.59
2022-12-12T03:14:37.607Z,98379.25
2022-12-12T03:16:48.302Z,98378.16
2022-12-12T03:18:57.354Z,98386.25
2022-12-12T03:21:16.744Z,98377.19
2022-12-12T03:23:25.331Z,98358.56
2022-12-12T03:25:37.041Z,98377.19
2022-12-12T03:28:07.237Z,98385.75
2022-12-12T03:30:13.933Z,98371.72
2022-12-12T03:32:22.573Z,98378.88
2022-12-12T03:34:30.924Z,98383.94
2022-12-12T03:36:44.245Z,98391.41
2022-12-12T03:39:06.347Z,98389.53
2022-12-12T03:41:16.059Z,98400.09
2022-12-12T03:43:32.792Z,98390.50
2022-12-12T03:45:56.017Z,98385.97
2022-12-12T03:48:27.611Z,98392.94
2022-12-12T03:50:43.597Z,98393.63
2022-12-12T03:52:53.555Z,98393.69
2022-12-12T03:55:01.525Z,98378.28
2022-12-12T03:57:30.415Z,98385.81
2022-12-12T03:59:42.532Z,98386.91
2022-12-12T04:01:52.413Z,98402.91
2022-12-12T04:04:09.427Z,98397.25
2022-12-12T04:06:27.835Z,98393.06
2022-12-12T04:08:30.746Z,98396.59
2022-12-12T04:11:02.529Z,98392.88
2022-12-12T04:13:21.690Z,98398.31
2022-12-12T04:15:54.386Z,98392.13
2022-12-12T04:18:11.444Z,98388.31
2022-12-12T04:20:44.556Z,98387.78
2022-12-12T04:23:25.458Z,98392.28
2022-12-12T04:25:57.680Z,98395.84
2022-12-12T04:28:05.738Z,98391.09
2022-12-12T04:30:10.489Z,98390.84
2022-12-12T04:32:20.296Z,98390.97
2022-12-12T04:34:35.052Z,98399.94
2022-12-12T04:36:40.110Z,98392.19
2022-12-12T04:38:45.529Z,98394.75
2022-12-12T04:40:53.764Z,98395.03
2022-12-12T04:43:03.597Z,98395.06
2022-12-12T04:45:24.316Z,98398.31
2022-12-12T04:47:30.438Z,98394.03
2022-12-12T04:49:35.785Z,98401.88
2022-12-12T04:51:42.574Z,98401.78
2022-12-12T04:53:49.890Z,98405.69
2022-12-12T04:55:57.504Z,98419.72
2022-12-12T04:58:01.732Z,98407.13
2022-12-12T05:00:04.118Z,98411.63
2022-12-12T05:02:49.883Z,98415.41
2022-12-12T05:05:02.754Z,98409.91
2022-12-12T05:07:12.345Z,98410.19
2022-12-12T05:09:18.135Z,98409.53
2022-12-12T05:11:22.455Z,98418.34
2022-12-12T05:13:29.727Z,98403.84
2022-12-12T05:15:31.669Z,98410.78
2022-12-12T05:17:46.101Z,98410.66
2022-12-12T05:19:48.319Z,98413.09
2022-12-12T05:21:50.553Z,98418.59
2022-12-12T05:23:52.716Z,98416.75
2022-12-12T05:25:54.597Z,98420.94
2022-12-12T05:27:57.002Z,98432.59
2022-12-12T05:30:00.681Z,98434.28
2022-12-12T05:32:03.384Z,98428.44
2022-12-12T05:34:06.044Z,98441.66
2022-12-12T05:36:08.342Z,98428.41
2022-12-12T05:38:10.488Z,98441.78
2022-12-12T05:40:13.826Z,98434.84
2022-12-12T05:42:15.754Z,98434.75
2022-12-12T05:44:18.005Z,98439.97
2022-12-12T05:46:20.376Z,98445.41
2022-12-12T05:48:24.551Z,98430.28
2022-12-12T05:50:26.806Z,98431.38
2022-12-12T05:52:28.993Z,98430.53
2022-12-12T05:54:33.750Z,98439.53
2022-12-12T05:56:35.849Z,98439.50
2022-12-12T05:58:39.981Z,98447.53
2022-12-12T06:00:42.306Z,98444.94
2022-12-12T06:02:44.253Z,98450.31
2022-12-12T06:04:46.389Z,98448.44
2022-12-12T06:06:50.626Z,98445.53
2022-12-12T06:08:52.811Z,98456.31
2022-12-12T06:10:59.532Z,98454.75
2022-12-12T06:13:01.730Z,98468.00
2022-12-12T06:15:04.153Z,98476.09
2022-12-12T06:17:06.896Z,98472.34
2022-12-12T06:19:09.121Z,98474.38
2022-12-12T06:21:13.220Z,98475.44
2022-12-12T06:23:15.460Z,98478.00
2022-12-12T06:25:17.710Z,98485.88
2022-12-12T06:27:20.139Z,98490.50
2022-12-12T06:29:22.321Z,98493.28
2022-12-12T06:31:24.693Z,98500.19
2022-12-12T06:33:28.403Z,98491.53
2022-12-12T06:35:31.042Z,98501.06
2022-12-12T06:37:33.523Z,98496.75
2022-12-12T06:39:35.442Z,98504.53
2022-12-12T06:41:37.730Z,98502.00
2022-12-12T06:43:40.914Z,98526.03
2022-12-12T06:45:42.988Z,98515.50
2022-12-12T06:47:45.066Z,98518.28
2022-12-12T06:49:47.371Z,98521.75
2022-12-12T06:51:49.425Z,98524.53
2022-12-12T06:53:51.672Z,98530.50
2022-12-12T06:55:56.111Z,98530.59
2022-12-12T06:57:58.504Z,98527.09
2022-12-12T07:00:00.988Z,98528.81
2022-12-12T07:02:03.788Z,98528.72
2022-12-12T07:04:05.987Z,98531.56
2022-12-12T07:06:11.044Z,98539.22
2022-12-12T07:08:15.377Z,98538.41
2022-12-12T07:10:21.292Z,98541.25
2022-12-12T07:12:23.713Z,98538.63
2022-12-12T07:14:25.863Z,98545.78
2022-12-12T07:16:28.497Z,98552.91
2022-12-12T07:18:37.311Z,98567.25
2022-12-12T07:20:41.095Z,98560.91
2022-12-12T07:22:43.494Z,98564.56
2022-12-12T07:24:45.565Z,98566.47
2022-12-12T07:26:47.727Z,98571.69
2022-12-12T07:28:51.680Z,98575.44
2022-12-12T07:31:01.861Z,98567.44
2022-12-12T07:33:03.929Z,98571.03
2022-12-12T07:35:06.330Z,98579.19
2022-12-12T07:37:09.195Z,98578.09
2022-12-12T07:39:15.862Z,98588.75
2022-12-12T07:41:23.531Z,98592.75
2022-12-12T07:43:26.449Z,98593.41
2022-12-12T07:45:29.174Z,98594.34
2022-12-12T07:47:31.688Z,98595.09
2022-12-12T07:49:33.832Z,98605.09
2022-12-12T07:51:36.590Z,98602.44
2022-12-12T07:53:39.025Z,98611.25
2022-12-12T07:55:41.432Z,98609.59
2022-12-12T07:57:43.723Z,98608.75
2022-12-12T07:59:46.184Z,98623.84
2022-12-12T08:01:48.332Z,98625.53
2022-12-12T08:03:51.340Z,98627.38
2022-12-12T08:05:53.459Z,98631.81
2022-12-12T08:07:55.477Z,98631.75
2022-12-12T08:09:57.628Z,98640.72
2022-12-12T08:12:00.646Z,98634.59
2022-12-12T08:14:02.672Z,98639.84
2022-12-12T08:16:07.045Z,98641.00
2022-12-12T08:18:09.312Z,98648.88
2022-12-12T08:20:12.041Z,98648.13
2022-12-12T08:22:14.166Z,98652.50
2022-12-12T08:24:17.067Z,98655.22
2022-12-12T08:26:19.754Z,98655.94
2022-12-12T08:28:21.989Z,98661.16
2022-12-12T08:30:24.129Z,98671.13
2022-12-12T08:32:26.333Z,98680.84
2022-12-12T08:34:28.552Z,98675.56
2022-12-12T08:36:32.504Z,98678.19
2022-12-12T08:38:34.655Z,98684.25
2022-12-12T08:40:36.896Z,98687.03
2022-12-12T08:42:39.151Z,98686.16
2022-12-12T08:44:41.530Z,98683.63
2022-12-12T08:46:43.807Z,98687.16
2022-12-12T08:48:47.381Z,98691.63
2022-12-12T08:50:52.631Z,98687.19
2022-12-12T08:52:54.740Z,98688.97
2022-12-12T08:54:57.125Z,98688.09
2022-12-12T08:56:59.453Z,98692.56
2022-12-12T08:59:02.422Z,98690.16
2022-12-12T09:01:10.391Z,98693.66
2022-12-12T09:03:14.696Z,98694.53
2022-12-12T09:05:16.751Z,98694.44
2022-12-12T09:07:20.257Z,98690.78
2022-12-12T09:09:22.624Z,98693.44
2022-12-12T09:11:25.262Z,98687.34
2022-12-12T09:13:27.360Z,98687.28
2022-12-12T09:15:29.681Z,98686.44
2022-12-12T09:17:32.186Z,98689.16
2022-12-12T09:19:34.313Z,98687.41
2022-12-12T09:21:37.991Z,98694.94
2022-12-12T09:23:40.087Z,98685.88
2022-12-12T09:25:42.846Z,98688.25
2022-12-12T09:27:45.284Z,98686.41
2022-12-12T09:29:47.560Z,98698.94
2022-12-12T09:31:50.053Z,98695.63
2022-12-12T09:33:52.450Z,98704.41
2022-12-12T09:36:01.892Z,98708.03
2022-12-12T09:38:08.162Z,98702.81
2022-12-12T09:40:20.235Z,98703.81
2022-12-12T09:42:28.034Z,98699.19
2022-12-12T09:44:30.008Z,98708.94
2022-12-12T09:46:49.266Z,98704.75
2022-12-12T09:48:51.706Z,98710.16
2022-12-12T09:50:53.898Z,98715.53
2022-12-12T09:57:17.826Z,98711.13
2022-12-12T09:59:35.683Z,98711.38
2022-12-12T10:02:01.618Z,98721.13
2022-12-12T10:04:24.993Z,98722.28
2022-12-12T10:06:38.012Z,98720.38
2022-12-12T10:09:07.344Z,98731.03
2022-12-12T10:11:32.621Z,98733.59
2022-12-12T10:13:37.379Z,98730.75
2022-12-12T10:15:46.834Z,98733.50
2022-12-12T10:17:49.241Z,98737.94
2022-12-12T10:19:56.057Z,98738.94
2022-12-12T10:22:36.333Z,98740.63
2022-12-12T10:24:49.310Z,98749.66
2022-12-12T10:26:52.391Z,98756.66
2022-12-12T10:29:22.163Z,98755.16
2022-12-12T10:31:45.684Z,98753.19
2022-12-12T10:34:33.337Z,98754.34
2022-12-12T10:36:53.795Z,98752.50
2022-12-12T10:38:55.635Z,98755.94
2022-12-12T10:41:04.804Z,98748.16
2022-12-12T10:43:11.676Z,98756.06
2022-12-12T10:45:26.763Z,98760.53
2022-12-12T10:47:28.936Z,98763.16
2022-12-12T10:49:31.975Z,98768.38
2022-12-12T10:51:34.015Z,98763.16
2022-12-12T10:53:36.236Z,98761.19
2022-12-12T10:55:55.275Z,98763.19
2022-12-12T10:58:03.877Z,98765.09
2022-12-12T11:00:27.744Z,98774.00
2022-12-12T11:02:37.989Z,98782.78
2022-12-12T11:04:40.134Z,98777.53
2022-12-12T11:07:18.096Z,98779.50
2022-12-12T11:09:29.223Z,98777.56
2022-12-12T11:11:31.548Z,98780.22
2022-12-12T11:13:52.567Z,98790.19
2022-12-12T11:16:12.937Z,98786.47
2022-12-12T11:18:18.634Z,98789.25
2022-12-12T11:20:21.143Z,98804.22
2022-12-12T11:22:24.734Z,98785.50
2022-12-12T11:24:32.691Z,98797.22
2022-12-12T11:26:42.585Z,98793.75
2022-12-12T11:28:52.416Z,98793.44
2022-12-12T11:31:01.307Z,98796.16
2022-12-12T11:33:05.614Z,98795.22
2022-12-12T11:35:29.587Z,98799.00
2022-12-12T11:37:54.138Z,98795.28
2022-12-12T11:39:57.442Z,98799.59
2022-12-12T11:42:06.099Z,98802.31
2022-12-12T11:44:25.901Z,98801.66
2022-12-12T11:46:32.653Z,98809.53
2022-12-12T11:48:48.743Z,98814.16
2022-12-12T11:50:50.880Z,98816.66
2022-12-12T11:53:01.909Z,98825.59
2022-12-12T11:55:04.543Z,98826.56
2022-12-12T11:57:11.160Z,98833.69
2022-12-12T11:59:15.983Z,98829.16
2022-12-12T12:01:22.612Z,98830.09
2022-12-12T12:03:33.730Z,98837.28
2022-12-12T12:05:41.615Z,98827.59
2022-12-12T12:07:58.831Z,98823.22
2022-12-12T12:10:17.292Z,98830.25
2022-12-12T12:12:35.554Z,98832.91
2022-12-12T12:14:54.666Z,98831.75
2022-12-12T12:17:17.566Z,98833.72
2022-12-12T12:19:30.258Z,98836.44
2022-12-12T12:21:35.213Z,98833.78
2022-12-12T12:23:55.546Z,98835.66
2022-12-12T12:26:03.660Z,98842.44
2022-12-12T12:28:05.660Z,98842.59
2022-12-12T12:30:25.991Z,98848.81
2022-12-12T12:32:53.236Z,98847.25
2022-12-12T12:35:01.742Z,98840.81
2022-12-12T12:37:06.345Z,98845.09
2022-12-12T12:39:58.498Z,98846.31
2022-12-12T12:42:12.452Z,98846.25
2022-12-12T12:44:16.291Z,98849.66
2022-12-12T12:46:27.413Z,98847.94
2022-12-12T12:48:39.445Z,98849.72
2022-12-12T12:50:53.033Z,98847.84
2022-12-12T12:52:58.316Z,98846.00
2022-12-12T12:55:01.374Z,98848.78
2022-12-12T12:57:25.749Z,98845.25
2022-12-12T12:59:37.140Z,98855.00
2022-12-12T13:01:45.764Z,98855.16
2022-12-12T13:04:05.492Z,98861.41
2022-12-12T13:06:15.770Z,98857.03
2022-12-12T13:08:23.705Z,98861.16
2022-12-12T13:10:31.160Z,98857.69
2022-12-12T13:12:44.464Z,98869.31
2022-12-12T13:14:59.960Z,98860.28
2022-12-12T13:17:06.974Z,98862.97
2022-12-12T13:19:21.758Z,98863.13
2022-12-12T13:21:33.390Z,98873.88
2022-12-12T13:23:56.312Z,98865.94
2022-12-12T13:26:06.651Z,98864.00
2022-12-12T13:28:17.983Z,98870.34
2022-12-12T13:30:24.480Z,98880.19
2022-12-12T13:33:01.418Z,98870.53
2022-12-12T13:35:09.759Z,98871.56
2022-12-12T13:37:17.430Z,98879.59
2022-12-12T13:39:35.307Z,98880.38
2022-12-12T13:42:10.606Z,98878.59
2022-12-12T13:44:36.073Z,98880.31
2022-12-12T13:46:40.246Z,98881.25
2022-12-12T13:48:47.250Z,98881.25
2022-12-12T13:51:36.336Z,98877.69
2022-12-12T13:53:38.574Z,98879.38
2022-12-12T13:55:40.736Z,98877.63
2022-12-12T13:57:59.081Z,98878.56
2022-12-12T14:00:03.799Z,98876.59
2022-12-12T14:02:33.561Z,98880.19
2022-12-12T14:04:37.990Z,98880.06
2022-12-12T14:06:40.089Z,98881.91
2022-12-12T14:08:49.647Z,98882.97
2022-12-12T14:10:59.725Z,98882.84
2022-12-12T14:13:23.182Z,98878.47
2022-12-12T14:15:32.019Z,98887.25
2022-12-12T14:17:42.347Z,98881.06
2022-12-12T14:19:49.943Z,98883.63
2022-12-12T14:21:52.162Z,98891.63
2022-12-12T14:23:54.346Z,98894.25
2022-12-12T14:25:56.950Z,98898.66
2022-12-12T14:28:16.528Z,98899.66
2022-12-12T14:30:26.233Z,98896.16
2022-12-12T14:32:44.283Z,98908.59
2022-12-12T14:35:04.510Z,98903.97
2022-12-12T14:37:17.069Z,98904.13
2022-12-12T14:39:39.423Z,98903.19
2022-12-12T14:41:44.578Z,98906.53
2022-12-12T14:44:37.035Z,98908.44
2022-12-12T14:46:19.544Z,98906.63
2022-12-12T14:48:24.443Z,98904.88
2022-12-12T14:50:26.748Z,98897.84
2022-12-12T14:52:29.553Z,98903.03
2022-12-12T14:54:32.007Z,98912.88
2022-12-12T14:56:49.090Z,98906.97
2022-12-12T14:59:19.207Z,98903.53
2022-12-12T15:01:52.420Z,98907.75
2022-12-12T15:03:55.354Z,98901.38
2022-12-12T15:06:19.329Z,98908.63
2022-12-12T15:08:21.577Z,98909.47
2022-12-12T15:10:27.649Z,98899.91
2022-12-12T15:12:35.772Z,98909.53
2022-12-12T15:14:39.948Z,98910.41
2022-12-12T15:16:52.097Z,98905.94
2022-12-12T15:18:59.614Z,98914.03
2022-12-12T15:21:01.838Z,98914.94
2022-12-12T15:23:07.224Z,98921.97
2022-12-12T15:25:17.927Z,98921.22
2022-12-12T15:27:37.311Z,98913.16
2022-12-12T15:29:42.817Z,98911.38
2022-12-12T15:31:47.331Z,98922.91
2022-12-12T15:33:52.299Z,98908.69
2022-12-12T15:36:01.730Z,98911.50
2022-12-12T15:38:12.170Z,98920.25
2022-12-12T15:40:18.657Z,98912.88
2022-12-12T15:42:20.876Z,98919.06
2022-12-12T15:44:23.072Z,98910.41
2022-12-12T15:46:30.721Z,98920.09
2022-12-12T15:48:33.034Z,98913.84
2022-12-12T15:50:44.538Z,98930.91
2022-12-12T15:53:26.423Z,98922.13
2022-12-12T15:55:28.884Z,98914.94
2022-12-12T15:57:43.820Z,98919.47
2022-12-12T16:00:32.295Z,98925.06
2022-12-12T16:02:38.579Z,98939.13
2022-12-12T16:05:31.048Z,98925.16
2022-12-12T16:07:37.889Z,98930.28
2022-12-12T16:09:58.052Z,98922.41
2022-12-12T16:12:00.555Z,98930.28
2022-12-12T16:14:03.323Z,98929.34
2022-12-12T16:16:50.409Z,98930.38
2022-12-12T16:18:52.523Z,98935.63
2022-12-12T16:20:56.839Z,98948.13
2022-12-12T16:23:22.928Z,98949.97
2022-12-12T16:25:28.708Z,98940.00
2022-12-12T16:27:31.333Z,98947.19
2022-12-12T16:29:33.384Z,98944.53
2022-12-12T16:31:35.558Z,98942.66
2022-12-12T16:33:39.711Z,98954.22
2022-12-12T16:35:41.769Z,98953.28
2022-12-12T16:37:43.894Z,98948.03
2022-12-12T16:39:46.418Z,98947.88
2022-12-12T16:41:48.931Z,98957.56
2022-12-12T16:43:51.237Z,98954.16
2022-12-12T16:45:54.960Z,98948.81
2022-12-12T16:47:58.664Z,98956.81
2022-12-12T16:50:00.778Z,98953.25
2022-12-12T16:52:02.937Z,98955.91
2022-12-12T16:54:05.304Z,98955.06
2022-12-12T16:56:07.611Z,98956.88
2022-12-12T16:58:10.235Z,98949.81
2022-12-12T17:00:13.759Z,98947.19
2022-12-12T17:02:22.558Z,98946.41
2022-12-12T17:04:25.337Z,98949.06
2022-12-12T17:06:27.503Z,98952.69
2022-12-12T17:08:29.931Z,98956.25
2022-12-12T17:10:34.607Z,98952.75
2022-12-12T17:12:38.825Z,98955.41
2022-12-12T17:14:40.798Z,98951.72
2022-12-12T17:16:43.029Z,98947.38
2022-12-12T17:18:45.264Z,98950.88
2022-12-12T17:20:47.899Z,98957.84
2022-12-12T17:22:52.105Z,98947.31
2022-12-12T17:24:54.166Z,98961.44
2022-12-12T17:26:56.395Z,98960.66
2022-12-12T17:28:58.353Z,98965.03
2022-12-12T17:31:01.432Z,98961.47
2022-12-12T17:33:18.138Z,98964.91
2022-12-12T17:35:20.324Z,98963.16
2022-12-12T17:37:23.391Z,98965.00
2022-12-12T17:39:25.902Z,98965.00
2022-12-12T17:41:28.084Z,98976.50
2022-12-12T17:43:30.527Z,98973.00
2022-12-12T17:45:32.738Z,98974.84
2022-12-12T17:47:35.200Z,98975.84
2022-12-12T17:49:37.526Z,98971.47
2022-12-12T17:51:39.561Z,98983.78
2022-12-12T17:53:41.848Z,98985.56
2022-12-12T17:55:52.921Z,98990.00
2022-12-12T17:57:57.955Z,98985.53
2022-12-12T18:00:02.904Z,98985.53
2022-12-12T18:02:14.334Z,98986.34
2022-12-12T18:04:16.671Z,98992.50
2022-12-12T18:06:20.206Z,98990.88
2022-12-12T18:08:22.328Z,98984.63
2022-12-12T18:10:26.918Z,98992.53
2022-12-12T18:12:29.084Z,98989.06
2022-12-12T18:14:48.139Z,98991.78
2022-12-12T18:16:55.782Z,98989.88
2022-12-12T18:18:58.196Z,98989.13
2022-12-12T18:21:05.552Z,98993.56
2022-12-12T18:23:10.283Z,99003.31
2022-12-12T18:25:19.865Z,99005.16
2022-12-12T18:27:27.621Z,99009.53
2022-12-12T18:29:29.803Z,99013.06
2022-12-12T18:31:32.719Z,99022.91
2022-12-12T18:33:35.477Z,99023.75
2022-12-12T18:35:37.853Z,99024.63
2022-12-12T18:37:39.872Z,99022.13
2022-12-12T18:39:42.112Z,99023.06
2022-12-12T18:41:44.268Z,99027.66
2022-12-12T18:43:46.812Z,99033.03
2022-12-12T18:45:52.269Z,99041.00
2022-12-12T18:47:55.802Z,99034.88
2022-12-12T18:49:58.453Z,99037.56
2022-12-12T18:52:06.723Z,99035.03
2022-12-12T18:54:14.225Z,99038.41
2022-12-12T18:56:28.936Z,99044.00
2022-12-12T18:58:31.333Z,99051.03
2022-12-12T19:00:33.495Z,99049.16
2022-12-12T19:02:38.573Z,99051.75
2022-12-12T19:04:42.161Z,99043.84
2022-12-12T19:06:44.252Z,99058.06
2022-12-12T19:08:46.630Z,99064.31
2022-12-12T19:10:48.820Z,99058.00
2022-12-12T19:20:57.468Z,99075.91
2022-12-12T19:22:59.436Z,99082.97
2022-12-12T19:25:01.888Z,99087.22
2022-12-12T19:27:03.950Z,99083.03
2022-12-12T19:29:17.863Z,99088.22
2022-12-12T19:31:19.915Z,99082.84
2022-12-12T19:33:22.176Z,99083.81
2022-12-12T19:35:24.706Z,99080.19
2022-12-12T19:37:26.912Z,99088.16
2022-12-12T19:39:30.921Z,99097.84
2022-12-12T19:41:34.173Z,99092.59
2022-12-12T19:43:36.645Z,99096.06
2022-12-12T19:45:38.657Z,99101.34
2022-12-12T19:47:40.804Z,99106.72
2022-12-12T19:49:43.858Z,99109.28
2022-12-12T19:51:46.177Z,99105.69
2022-12-12T19:53:54.113Z,99112.03
2022-12-12T19:55:56.689Z,99117.38
2022-12-12T19:58:00.663Z,99120.03
2022-12-12T20:00:03.863Z,99120.03
2022-12-12T20:02:12.216Z,99117.38
2022-12-12T20:04:24.290Z,99111.19
2022-12-12T20:06:30.706Z,99118.22
2022-12-12T20:08:34.285Z,99119.03
2022-12-12T20:10:37.064Z,99113.72
2022-12-12T20:12:46.228Z,99120.88
2022-12-12T20:14:54.448Z,99118.22
2022-12-12T20:16:57.509Z,99112.91
2022-12-12T20:18:59.932Z,99119.09
2022-12-12T20:21:03.669Z,99121.88
2022-12-12T20:23:07.434Z,99118.34
2022-12-12T20:25:09.766Z,99127.25
2022-12-12T20:27:12.240Z,99130.75
2022-12-12T20:29:14.628Z,99125.47
2022-12-12T20:31:19.899Z,99135.22
2022-12-12T20:33:21.963Z,99128.09
2022-12-12T20:35:24.095Z,99129.03
2022-12-12T20:37:26.936Z,99145.78
2022-12-12T20:39:30.064Z,99129.03
2022-12-12T20:41:38.072Z,99136.94
2022-12-12T20:43:41.266Z,99135.16
2022-12-12T20:45:43.552Z,99134.28
2022-12-12T20:48:11.061Z,99138.78
2022-12-12T20:50:36.970Z,99129.84
2022-12-12T20:52:40.042Z,99140.50
2022-12-12T20:54:42.258Z,99138.84
2022-12-12T20:56:46.336Z,99151.13
2022-12-12T20:58:59.567Z,99140.66
2022-12-12T21:01:02.016Z,99145.88
2022-12-12T21:03:04.401Z,99151.25
2022-12-12T21:05:08.609Z,99141.63
2022-12-12T21:07:10.655Z,99148.72
2022-12-12T21:09:17.714Z,99152.94
2022-12-12T21:11:29.549Z,99157.38
2022-12-12T21:13:31.532Z,99152.13
2022-12-12T21:15:33.647Z,99152.13
2022-12-12T21:17:35.639Z,99153.84
2022-12-12T21:19:37.883Z,99155.53
2022-12-12T21:21:42.290Z,99159.16
2022-12-12T21:23:44.587Z,99161.81
2022-12-12T21:25:47.810Z,99160.91
2022-12-12T21:27:50.327Z,99160.91
2022-12-12T21:29:52.615Z,99164.38
2022-12-12T21:31:54.845Z,99156.47
2022-12-12T21:33:57.826Z,99161.75
2022-12-12T21:36:08.534Z,99165.41
2022-12-12T21:38:12.837Z,99168.88
2022-12-12T21:40:15.035Z,99172.44
2022-12-12T21:42:18.034Z,99170.66
2022-12-12T21:44:21.009Z,99174.19
2022-12-12T21:46:25.760Z,99169.75
2022-12-12T21:48:29.995Z,99173.31
2022-12-12T21:50:32.495Z,99168.81
2022-12-12T21:56:21.451Z,99163.56
2022-12-12T21:58:23.524Z,99168.00
2022-12-12T22:00:27.115Z,99165.47
2022-12-12T22:02:29.156Z,99166.25
2022-12-12T22:04:32.519Z,99169.84
2022-12-12T22:06:36.516Z,99167.19
2022-12-12T22:08:42.488Z,99168.00
2022-12-12T22:10:44.490Z,99162.63
2022-12-12T22:12:57.563Z,99162.69
2022-12-12T22:15:01.337Z,99163.66
2022-12-12T22:17:05.277Z,99170.66
2022-12-12T22:19:11.166Z,99184.81
2022-12-12T22:21:15.605Z,99176.81
2022-12-12T22:23:18.197Z,99184.84
2022-12-12T22:25:20.574Z,99182.16
2022-12-12T22:27:22.926Z,99184.81
2022-12-12T22:29:25.191Z,99186.63
2022-12-12T22:31:31.198Z,99184.03
2022-12-12T22:33:35.441Z,99183.97
2022-12-12T22:35:37.880Z,99180.28
2022-12-12T22:37:42.627Z,99180.25
2022-12-12T22:39:44.828Z,99186.47
2022-12-12T22:41:47.286Z,99184.84
2022-12-12T22:43:54.182Z,99178.75
2022-12-12T22:46:02.111Z,99187.50
2022-12-12T22:48:04.311Z,99183.06
2022-12-12T22:50:07.012Z,99180.41
2022-12-12T22:52:08.958Z,99175.19
2022-12-12T22:54:11.727Z,99184.00
2022-12-12T22:56:14.534Z,99184.91
2022-12-12T22:58:17.053Z,99177.81
2022-12-12T23:00:19.188Z,99189.25
2022-12-12T23:02:25.337Z,99191.03
2022-12-12T23:04:27.791Z,99182.25
2022-12-12T23:06:32.207Z,99186.69
2022-12-12T23:08:34.628Z,99186.59
2022-12-12T23:10:37.628Z,99188.44
2022-12-12T23:12:40.145Z,99196.41
2022-12-12T23:14:42.335Z,99194.66
2022-12-12T23:16:45.010Z,99186.69
2022-12-12T23:18:48.086Z,99185.78
2022-12-12T23:20:50.230Z,99196.41
2022-12-12T23:22:52.649Z,99191.97
2022-12-12T23:24:54.773Z,99189.28
2022-12-12T23:26:59.728Z,99199.13
2022-12-12T23:29:01.955Z,99196.47
2022-12-12T23:31:09.916Z,99195.63
2022-12-12T23:33:12.022Z,99191.09
2022-12-12T23:35:14.386Z,99194.63
2022-12-12T23:37:17.845Z,99191.91
2022-12-12T23:39:20.506Z,99203.44
2022-12-12T23:41:23.137Z,99195.53
2022-12-12T23:43:25.284Z,99203.56
2022-12-12T23:45:29.793Z,99201.66
2022-12-12T23:47:31.981Z,99213.28
2022-12-12T23:49:33.992Z,99207.06
2022-12-12T23:51:39.312Z,99212.38
2022-12-12T23:53:41.566Z,99211.41
2022-12-12T23:55:43.524Z,99204.50
2022-12-12T23:57:45.708Z,99205.22
2022-12-12T23:59:48.060Z,99210.56
